createdAt,value
2023-05-13T00:01:09.264Z,99484.22
2023-05-13T00:03:55.770Z,99482.59
2023-05-13T00:06:43.785Z,99480.94
2023-05-13T00:09:30.393Z,99477.69
2023-05-13T00:12:16.984Z,99481.19
2023-05-13T00:15:03.666Z,99477.09
2023-05-13T00:17:50.076Z,99474.63
2023-05-13T00:20:36.841Z,99481.63
2023-05-13T00:23:24.730Z,99472.19
2023-05-13T00:26:11.362Z,99465.41
2023-05-13T00:28:57.689Z,99468.09
2023-05-13T00:31:44.352Z,99479.97
2023-05-13T00:34:30.876Z,99478.38
2023-05-13T00:37:17.509Z,99476.72
2023-05-13T00:40:07.735Z,99463.09
2023-05-13T00:42:55.474Z,99471.59
2023-05-13T00:45:42.449Z,99473.34
2023-05-13T00:48:29.309Z,99467.25
2023-05-13T00:51:15.663Z,99462.38
2023-05-13T00:54:02.449Z,99480.31
2023-05-13T00:56:54.276Z,99478.69
2023-05-13T00:59:40.977Z,99476.13
2023-05-13T01:02:53.539Z,99479.53
2023-05-13T01:05:51.391Z,99477.88
2023-05-13T01:08:46.947Z,99486.38
2023-05-13T01:11:38.734Z,99484.66
2023-05-13T01:14:34.394Z,99484.66
2023-05-13T01:17:28.335Z,99486.25
2023-05-13T01:20:15.426Z,99482.09
2023-05-13T01:23:03.938Z,99481.25
2023-05-13T01:25:50.528Z,99485.56
2023-05-13T01:28:37.497Z,99479.72
2023-05-13T01:31:25.793Z,99478.13
2023-05-13T01:34:14.737Z,99478.19
2023-05-13T01:37:01.857Z,99480.06
2023-05-13T01:39:50.464Z,99484.41
2023-05-13T01:42:38.132Z,99486.25
2023-05-13T01:45:25.033Z,99486.25
2023-05-13T01:48:11.457Z,99488.13
2023-05-13T01:51:02.674Z,99492.41
2023-05-13T01:53:49.365Z,99487.28
2023-05-13T01:56:38.635Z,99478.91
2023-05-13T01:59:25.054Z,99479.81
2023-05-13T02:02:11.581Z,99482.50
2023-05-13T02:04:58.019Z,99488.44
2023-05-13T02:07:44.806Z,99484.16
2023-05-13T02:10:31.352Z,99488.56
2023-05-13T02:13:22.201Z,99492.03
2023-05-13T02:16:08.848Z,99488.78
2023-05-13T02:18:55.211Z,99483.66
2023-05-13T02:21:47.785Z,99482.81
2023-05-13T02:24:35.242Z,99479.44
2023-05-13T02:27:23.450Z,99479.44
2023-05-13T02:30:12.790Z,99475.13
2023-05-13T02:33:01.421Z,99482.81
2023-05-13T02:35:47.792Z,99487.94
2023-05-13T02:38:34.454Z,99483.78
2023-05-13T02:41:22.704Z,99477.69
2023-05-13T02:44:09.921Z,99476.88
2023-05-13T02:46:58.363Z,99482.94
2023-05-13T02:49:45.118Z,99474.44
2023-05-13T02:52:31.736Z,99475.25
2023-05-13T02:55:18.740Z,99470.09
2023-05-13T02:58:05.813Z,99470.94
2023-05-13T03:00:52.026Z,99474.31
2023-05-13T03:03:40.202Z,99470.09
2023-05-13T03:06:26.801Z,99467.66
2023-05-13T03:09:13.617Z,99467.78
2023-05-13T03:11:59.949Z,99465.22
2023-05-13T03:14:47.208Z,99464.41
2023-05-13T03:17:33.969Z,99466.25
2023-05-13T03:20:22.079Z,99472.19
2023-05-13T03:23:08.950Z,99463.81
2023-05-13T03:25:55.974Z,99464.59
2023-05-13T03:28:42.424Z,99469.72
2023-05-13T03:31:29.119Z,99475.69
2023-05-13T03:34:16.498Z,99483.41
2023-05-13T03:37:05.120Z,99479.19
2023-05-13T03:39:51.892Z,99477.53
2023-05-13T03:42:38.583Z,99481.75
2023-05-13T03:45:25.682Z,99480.94
2023-05-13T03:48:16.591Z,99486.88
2023-05-13T03:51:03.297Z,99480.94
2023-05-13T03:53:51.323Z,99483.59
2023-05-13T03:56:38.077Z,99481.88
2023-05-13T03:59:24.924Z,99479.41
2023-05-13T04:02:11.441Z,99482.78
2023-05-13T04:04:58.020Z,99482.78
2023-05-13T04:07:45.499Z,99498.16
2023-05-13T04:10:33.592Z,99488.84
2023-05-13T04:13:20.080Z,99499.94
2023-05-13T04:16:06.867Z,99499.81
2023-05-13T04:18:53.291Z,99507.50
2023-05-13T04:21:41.048Z,99508.31
2023-05-13T04:24:27.686Z,99510.88
2023-05-13T04:27:15.781Z,99515.09
2023-05-13T04:30:02.978Z,99510.75
2023-05-13T04:32:52.336Z,99513.22
2023-05-13T04:35:39.411Z,99517.41
2023-05-13T04:38:27.704Z,99515.69
2023-05-13T04:41:14.036Z,99517.41
2023-05-13T04:44:07.144Z,99531.88
2023-05-13T04:46:54.104Z,99518.94
2023-05-13T04:49:40.721Z,99533.41
2023-05-13T04:52:27.895Z,99537.63
2023-05-13T04:55:14.851Z,99540.75
2023-05-13T04:58:01.975Z,99533.91
2023-05-13T05:00:50.501Z,99533.78
2023-05-13T05:03:37.548Z,99535.44
2023-05-13T05:06:24.260Z,99531.00
2023-05-13T05:09:10.960Z,99535.09
2023-05-13T05:11:57.702Z,99537.53
2023-05-13T05:14:47.537Z,99537.53
2023-05-13T05:17:37.114Z,99536.50
2023-05-13T05:20:25.206Z,99538.03
2023-05-13T05:23:14.683Z,99546.53
2023-05-13T05:26:11.163Z,99542.13
2023-05-13T05:28:59.476Z,99555.66
2023-05-13T05:31:47.337Z,99561.50
2023-05-13T05:34:35.865Z,99544.22
2023-05-13T05:37:22.539Z,99548.44
2023-05-13T05:40:10.839Z,99549.97
2023-05-13T05:43:00.410Z,99552.41
2023-05-13T05:45:47.026Z,99554.88
2023-05-13T05:48:37.285Z,99546.97
2023-05-13T05:51:25.781Z,99557.94
2023-05-13T05:54:12.746Z,99561.22
2023-05-13T05:56:59.503Z,99559.34
2023-05-13T05:59:47.250Z,99559.22
2023-05-13T06:02:35.036Z,99556.53
2023-05-13T06:05:23.078Z,99556.41
2023-05-13T06:08:10.992Z,99562.50
2023-05-13T06:10:58.422Z,99559.94
2023-05-13T06:13:45.620Z,99560.75
2023-05-13T06:16:32.423Z,99567.53
2023-05-13T06:19:20.646Z,99568.22
2023-05-13T06:22:07.166Z,99564.59
2023-05-13T06:24:57.770Z,99568.00
2023-05-13T06:27:44.394Z,99574.66
2023-05-13T06:30:31.119Z,99568.38
2023-05-13T06:33:17.539Z,99563.94
2023-05-13T06:36:04.807Z,99569.66
2023-05-13T06:38:51.915Z,99575.28
2023-05-13T06:41:39.776Z,99569.00
2023-05-13T06:44:31.403Z,99571.31
2023-05-13T06:47:18.011Z,99573.69
2023-05-13T06:50:05.300Z,99576.97
2023-05-13T06:52:51.633Z,99558.88
2023-05-13T06:55:41.513Z,99569.03
2023-05-13T06:58:30.048Z,99560.41
2023-05-13T07:01:17.130Z,99561.94
2023-05-13T07:04:03.571Z,99553.28
2023-05-13T07:06:51.273Z,99554.09
2023-05-13T07:09:38.325Z,99559.81
2023-05-13T07:12:24.973Z,99557.13
2023-05-13T07:15:13.135Z,99552.69
2023-05-13T07:17:59.625Z,99557.59
2023-05-13T07:20:46.442Z,99552.34
2023-05-13T07:23:32.704Z,99544.53
2023-05-13T07:26:19.252Z,99552.25
2023-05-13T07:29:06.079Z,99560.88
2023-05-13T07:31:53.666Z,99557.47
2023-05-13T07:34:40.073Z,99551.41
2023-05-13T07:37:27.218Z,99563.34
2023-05-13T07:40:14.241Z,99551.28
2023-05-13T07:43:00.780Z,99557.28
2023-05-13T07:45:47.231Z,99552.81
2023-05-13T07:48:35.050Z,99549.19
2023-05-13T07:51:21.832Z,99553.28
2023-05-13T07:54:10.168Z,99547.91
2023-05-13T07:56:56.552Z,99552.94
2023-05-13T07:59:44.801Z,99552.72
2023-05-13T08:02:34.744Z,99547.34
2023-05-13T08:05:23.233Z,99554.13
2023-05-13T08:08:09.893Z,99547.81
2023-05-13T08:10:56.432Z,99545.00
2023-05-13T08:13:43.099Z,99545.47
2023-05-13T08:16:29.699Z,99544.97
2023-05-13T08:19:16.612Z,99548.00
2023-05-13T08:22:05.342Z,99551.06
2023-05-13T08:24:51.862Z,99541.09
2023-05-13T08:27:38.220Z,99537.94
2023-05-13T08:30:24.622Z,99540.81
2023-05-13T08:33:11.818Z,99537.56
2023-05-13T08:35:58.876Z,99543.75
2023-05-13T08:38:46.994Z,99532.03
2023-05-13T08:41:35.411Z,99541.59
2023-05-13T08:44:28.442Z,99533.28
2023-05-13T08:47:23.327Z,99534.00
2023-05-13T08:50:11.273Z,99534.41
2023-05-13T08:52:59.741Z,99534.31
2023-05-13T08:55:48.128Z,99529.97
2023-05-13T08:58:35.022Z,99525.72
2023-05-13T09:01:22.513Z,99536.22
2023-05-13T09:04:11.553Z,99541.84
2023-05-13T09:06:58.867Z,99537.31
2023-05-13T09:09:46.130Z,99538.84
2023-05-13T09:12:52.066Z,99539.53
2023-05-13T09:15:43.184Z,99535.59
2023-05-13T09:18:32.369Z,99540.34
2023-05-13T09:21:26.944Z,99540.34
2023-05-13T09:24:18.505Z,99551.63
2023-05-13T09:27:05.908Z,99545.78
2023-05-13T09:30:01.474Z,99557.19
2023-05-13T09:33:08.005Z,99554.03
2023-05-13T09:35:54.785Z,99546.72
2023-05-13T09:38:41.196Z,99553.91
2023-05-13T09:41:28.359Z,99546.44
2023-05-13T09:44:14.783Z,99543.19
2023-05-13T09:47:03.144Z,99544.25
2023-05-13T09:49:57.364Z,99532.16
2023-05-13T09:52:46.390Z,99544.25
2023-05-13T09:55:32.795Z,99541.69
2023-05-13T09:58:20.167Z,99546.84
2023-05-13T10:01:06.876Z,99546.84
2023-05-13T10:03:55.757Z,99556.31
2023-05-13T10:06:42.725Z,99551.44
2023-05-13T10:09:34.702Z,99554.00
2023-05-13T10:12:23.476Z,99547.34
2023-05-13T10:15:11.258Z,99548.28
2023-05-13T10:17:58.965Z,99552.66
2023-05-13T10:20:52.713Z,99537.19
2023-05-13T10:23:39.845Z,99531.88
2023-05-13T10:26:27.170Z,99533.38
2023-05-13T10:29:14.226Z,99541.69
2023-05-13T10:32:01.290Z,99533.94
2023-05-13T10:34:49.138Z,99539.78
2023-05-13T10:37:59.893Z,99533.81
2023-05-13T10:41:07.962Z,99532.97
2023-05-13T10:43:59.008Z,99533.13
2023-05-13T10:46:48.493Z,99532.44
2023-05-13T10:49:36.206Z,99532.69
2023-05-13T10:52:22.735Z,99532.97
2023-05-13T10:55:18.784Z,99526.41
2023-05-13T10:58:09.398Z,99530.19
2023-05-13T11:01:15.442Z,99531.53
2023-05-13T11:04:04.239Z,99521.63
2023-05-13T11:06:51.629Z,99525.41
2023-05-13T11:09:39.416Z,99528.22
2023-05-13T11:12:27.094Z,99517.25
2023-05-13T11:15:22.882Z,99521.72
2023-05-13T11:18:09.572Z,99514.25
2023-05-13T11:20:56.214Z,99509.22
2023-05-13T11:23:54.154Z,99509.34
2023-05-13T11:26:48.486Z,99501.06
2023-05-13T11:29:38.590Z,99497.78
2023-05-13T11:32:55.789Z,99501.47
2023-05-13T11:35:43.694Z,99499.13
2023-05-13T11:38:33.756Z,99501.03
2023-05-13T11:41:21.319Z,99496.81
2023-05-13T11:44:08.683Z,99497.75
2023-05-13T11:46:58.630Z,99491.00
2023-05-13T11:49:47.496Z,99495.31
2023-05-13T11:52:34.205Z,99495.31
2023-05-13T11:55:28.078Z,99492.59
2023-05-13T11:58:15.659Z,99487.44
2023-05-13T12:01:02.351Z,99495.88
2023-05-13T12:03:50.145Z,99490.84
2023-05-13T12:06:44.601Z,99488.28
2023-05-13T12:09:31.099Z,99491.66
2023-05-13T12:12:18.758Z,99483.94
2023-05-13T12:15:10.090Z,99488.16
2023-05-13T12:17:58.006Z,99489.09
2023-05-13T12:20:46.121Z,99489.09
2023-05-13T12:23:40.476Z,99483.00
2023-05-13T12:26:27.407Z,99481.34
2023-05-13T12:29:14.480Z,99480.56
2023-05-13T12:32:07.128Z,99477.97
2023-05-13T12:34:53.662Z,99488.28
2023-05-13T12:37:41.866Z,99485.72
2023-05-13T12:40:28.521Z,99489.09
2023-05-13T12:43:16.821Z,99477.84
2023-05-13T12:46:05.194Z,99479.59
2023-05-13T12:48:56.328Z,99476.91
2023-05-13T12:51:42.663Z,99472.56
2023-05-13T12:54:30.660Z,99479.06
2023-05-13T12:57:18.151Z,99471.22
2023-05-13T13:00:06.688Z,99472.84
2023-05-13T13:02:54.073Z,99486.41
2023-05-13T13:05:40.636Z,99486.16
2023-05-13T13:08:29.876Z,99491.31
2023-05-13T13:11:19.262Z,99483.59
2023-05-13T13:14:05.635Z,99486.16
2023-05-13T13:16:52.672Z,99482.63
2023-05-13T13:19:39.652Z,99486.16
2023-05-13T13:22:27.805Z,99484.53
2023-05-13T13:25:14.190Z,99468.13
2023-05-13T13:28:02.169Z,99469.06
2023-05-13T13:30:49.438Z,99469.06
2023-05-13T13:33:35.902Z,99475.03
2023-05-13T13:36:22.380Z,99466.34
2023-05-13T13:39:08.928Z,99467.16
2023-05-13T13:41:55.732Z,99462.84
2023-05-13T13:44:43.624Z,99460.94
2023-05-13T13:47:30.461Z,99459.19
2023-05-13T13:50:17.084Z,99466.91
2023-05-13T13:53:03.470Z,99460.78
2023-05-13T13:55:50.257Z,99461.63
2023-05-13T13:58:36.892Z,99448.59
2023-05-13T14:01:24.981Z,99457.13
2023-05-13T14:04:12.876Z,99437.50
2023-05-13T14:06:59.723Z,99453.75
2023-05-13T14:09:46.225Z,99453.75
2023-05-13T14:12:33.148Z,99457.28
2023-05-13T14:15:19.677Z,99450.47
2023-05-13T14:18:08.367Z,99447.91
2023-05-13T14:20:54.921Z,99444.53
2023-05-13T14:23:41.827Z,99448.03
2023-05-13T14:26:28.602Z,99448.75
2023-05-13T14:29:15.852Z,99452.13
2023-05-13T14:32:03.653Z,99443.59
2023-05-13T14:34:51.534Z,99435.00
2023-05-13T14:37:38.132Z,99446.28
2023-05-13T14:40:25.030Z,99444.66
2023-05-13T14:43:11.639Z,99447.38
2023-05-13T14:45:58.236Z,99443.28
2023-05-13T14:48:45.060Z,99434.63
2023-05-13T14:51:32.974Z,99436.50
2023-05-13T14:54:19.685Z,99449.53
2023-05-13T14:57:07.826Z,99446.16
2023-05-13T14:59:54.212Z,99442.72
2023-05-13T15:02:40.993Z,99444.50
2023-05-13T15:05:27.881Z,99444.63
2023-05-13T15:08:15.675Z,99448.97
2023-05-13T15:11:02.331Z,99439.63
2023-05-13T15:13:48.908Z,99434.56
2023-05-13T15:16:36.108Z,99444.06
2023-05-13T15:19:22.614Z,99434.56
2023-05-13T15:22:09.257Z,99435.41
2023-05-13T15:24:57.302Z,99435.53
2023-05-13T15:27:44.809Z,99443.28
2023-05-13T15:30:31.660Z,99451.94
2023-05-13T15:33:18.146Z,99462.19
2023-05-13T15:36:06.078Z,99482.22
2023-05-13T15:38:52.277Z,99483.06
2023-05-13T15:41:39.958Z,99488.41
2023-05-13T15:44:26.997Z,99493.66
2023-05-13T15:47:13.396Z,99500.69
2023-05-13T15:50:00.234Z,99507.94
2023-05-13T15:52:46.908Z,99497.13
2023-05-13T15:55:34.024Z,99493.44
2023-05-13T15:58:22.011Z,99492.66
2023-05-13T16:01:08.720Z,99484.25
2023-05-13T16:03:55.107Z,99477.38
2023-05-13T16:06:44.668Z,99474.47
2023-05-13T16:09:31.332Z,99475.88
2023-05-13T16:12:18.072Z,99471.78
2023-05-13T16:15:07.616Z,99472.63
2023-05-13T16:17:54.501Z,99475.06
2023-05-13T16:20:41.706Z,99468.88
2023-05-13T16:23:28.790Z,99468.50
2023-05-13T16:26:15.566Z,99463.00
2023-05-13T16:29:02.023Z,99462.78
2023-05-13T16:31:49.841Z,99462.56
2023-05-13T16:34:36.372Z,99462.44
2023-05-13T16:37:23.178Z,99456.13
2023-05-13T16:40:12.244Z,99467.91
2023-05-13T16:43:01.727Z,99471.06
2023-05-13T16:45:50.030Z,99473.50
2023-05-13T16:48:38.164Z,99473.25
2023-05-13T16:51:24.641Z,99462.06
2023-05-13T16:54:11.224Z,99466.13
2023-05-13T16:56:57.542Z,99461.69
2023-05-13T16:59:44.374Z,99460.63
2023-05-13T17:02:30.892Z,99446.84
2023-05-13T17:05:19.349Z,99439.00
2023-05-13T17:08:06.053Z,99445.78
2023-05-13T17:10:52.667Z,99449.03
2023-05-13T17:13:39.141Z,99452.44
2023-05-13T17:16:25.965Z,99445.53
2023-05-13T17:19:12.607Z,99448.81
2023-05-13T17:22:00.229Z,99449.63
2023-05-13T17:24:47.145Z,99447.06
2023-05-13T17:27:33.741Z,99460.56
2023-05-13T17:30:20.562Z,99451.13
2023-05-13T17:33:07.722Z,99451.81
2023-05-13T17:35:54.408Z,99451.81
2023-05-13T17:38:43.285Z,99456.94
2023-05-13T17:41:29.957Z,99453.44
2023-05-13T17:44:16.976Z,99456.81
2023-05-13T17:47:03.392Z,99458.59
2023-05-13T17:49:50.163Z,99468.06
2023-05-13T17:52:37.016Z,99467.09
2023-05-13T17:55:25.278Z,99478.22
2023-05-13T17:58:12.369Z,99469.69
2023-05-13T18:00:59.136Z,99476.47
2023-05-13T18:03:45.647Z,99465.38
2023-05-13T18:06:32.214Z,99475.66
2023-05-13T18:09:19.725Z,99466.19
2023-05-13T18:12:08.894Z,99475.66
2023-05-13T18:14:55.811Z,99470.50
2023-05-13T18:17:42.433Z,99472.25
2023-05-13T18:20:29.237Z,99469.69
2023-05-13T18:23:15.755Z,99470.50
2023-05-13T18:26:02.996Z,99485.94
2023-05-13T18:28:50.929Z,99490.25
2023-05-13T18:31:37.466Z,99490.25
2023-05-13T18:34:24.173Z,99492.00
2023-05-13T18:37:10.879Z,99487.00
2023-05-13T18:39:58.655Z,99501.63
2023-05-13T18:42:44.889Z,99499.13
2023-05-13T18:45:32.926Z,99499.97
2023-05-13T18:48:19.594Z,99509.41
2023-05-13T18:51:06.279Z,99512.94
2023-05-13T18:53:52.935Z,99508.75
2023-05-13T18:56:39.778Z,99506.31
2023-05-13T18:59:26.627Z,99509.78
2023-05-13T19:02:14.659Z,99511.56
2023-05-13T19:05:01.988Z,99518.56
2023-05-13T19:07:48.389Z,99519.50
2023-05-13T19:10:39.625Z,99523.81
2023-05-13T19:13:36.224Z,99529.09
2023-05-13T19:16:33.253Z,99535.16
2023-05-13T19:19:20.889Z,99535.28
2023-05-13T19:22:07.663Z,99543.13
2023-05-13T19:24:54.088Z,99543.94
2023-05-13T19:27:41.096Z,99547.41
2023-05-13T19:30:27.590Z,99550.94
2023-05-13T19:33:14.299Z,99550.00
2023-05-13T19:36:02.308Z,99547.41
2023-05-13T19:38:49.585Z,99554.31
2023-05-13T19:41:36.003Z,99567.19
2023-05-13T19:44:23.714Z,99557.81
2023-05-13T19:47:10.043Z,99556.09
2023-05-13T19:49:56.475Z,99565.53
2023-05-13T19:52:44.393Z,99556.22
2023-05-13T19:55:31.676Z,99553.72
2023-05-13T19:58:18.306Z,99552.94
2023-05-13T20:01:05.067Z,99559.00
2023-05-13T20:03:51.551Z,99552.25
2023-05-13T20:06:38.096Z,99555.75
2023-05-13T20:09:26.716Z,99556.69
2023-05-13T20:12:13.051Z,99554.34
2023-05-13T20:15:00.451Z,99556.91
2023-05-13T20:17:47.348Z,99564.63
2023-05-13T20:20:34.015Z,99557.03
2023-05-13T20:23:20.936Z,99568.25
2023-05-13T20:26:08.745Z,99564.03
2023-05-13T20:28:55.281Z,99565.78
2023-05-13T20:31:43.012Z,99560.78
2023-05-13T20:34:29.634Z,99562.50
2023-05-13T20:37:16.791Z,99559.13
2023-05-13T20:40:04.315Z,99566.97
2023-05-13T20:42:52.346Z,99571.28
2023-05-13T20:45:39.554Z,99568.81
2023-05-13T20:48:26.757Z,99568.00
2023-05-13T20:51:13.733Z,99569.75
2023-05-13T20:54:00.337Z,99570.69
2023-05-13T20:56:46.661Z,99563.13
2023-05-13T20:59:34.888Z,99562.28
2023-05-13T21:02:21.809Z,99560.63
2023-05-13T21:05:09.441Z,99553.88
2023-05-13T21:07:56.136Z,99551.41
2023-05-13T21:10:42.786Z,99549.78
2023-05-13T21:13:29.348Z,99548.28
2023-05-13T21:16:17.355Z,99551.78
2023-05-13T21:19:04.160Z,99552.00
2023-05-13T21:21:50.781Z,99554.59
2023-05-13T21:24:37.241Z,99547.81
2023-05-13T21:27:23.857Z,99552.94
2023-05-13T21:30:12.403Z,99545.47
2023-05-13T21:33:00.724Z,99550.13
2023-05-13T21:35:47.320Z,99546.84
2023-05-13T21:38:33.988Z,99549.53
2023-05-13T21:41:21.945Z,99541.16
2023-05-13T21:44:08.805Z,99545.44
2023-05-13T21:46:55.609Z,99548.97
2023-05-13T21:49:43.945Z,99554.22
2023-05-13T21:52:30.575Z,99552.47
2023-05-13T21:55:17.270Z,99551.75
2023-05-13T21:58:04.007Z,99550.00
2023-05-13T22:00:50.433Z,99551.75
2023-05-13T22:03:37.045Z,99549.28
2023-05-13T22:06:25.321Z,99548.50
2023-05-13T22:09:11.963Z,99551.06
2023-05-13T22:11:58.910Z,99555.38
2023-05-13T22:14:46.073Z,99549.41
2023-05-13T22:17:33.011Z,99539.16
2023-05-13T22:20:20.654Z,99538.34
2023-05-13T22:23:09.255Z,99544.28
2023-05-13T22:25:55.841Z,99536.56
2023-05-13T22:28:42.808Z,99537.41
2023-05-13T22:31:29.864Z,99539.16
2023-05-13T22:34:16.628Z,99536.69
2023-05-13T22:37:04.104Z,99531.69
2023-05-13T22:39:52.347Z,99533.53
2023-05-13T22:42:39.076Z,99534.44
2023-05-13T22:45:25.883Z,99531.97
2023-05-13T22:48:12.656Z,99526.97
2023-05-13T22:50:59.763Z,99528.84
2023-05-13T22:53:46.244Z,99520.41
2023-05-13T22:56:34.207Z,99526.50
2023-05-13T22:59:20.931Z,99530.00
2023-05-13T23:02:07.713Z,99517.16
2023-05-13T23:04:54.372Z,99527.44
2023-05-13T23:07:40.722Z,99509.47
2023-05-13T23:10:27.351Z,99506.91
2023-05-13T23:13:15.377Z,99507.81
2023-05-13T23:16:01.870Z,99512.03
2023-05-13T23:18:48.420Z,99506.91
2023-05-13T23:21:35.183Z,99507.69
2023-05-13T23:24:22.060Z,99507.81
2023-05-13T23:27:08.692Z,99498.59
2023-05-13T23:29:56.430Z,99505.38
2023-05-13T23:32:43.152Z,99512.25
2023-05-13T23:35:30.087Z,99502.94
2023-05-13T23:38:16.526Z,99509.66
2023-05-13T23:41:03.471Z,99499.41
2023-05-13T23:43:49.960Z,99501.03
2023-05-13T23:46:37.926Z,99500.25
2023-05-13T23:49:24.606Z,99494.28
2023-05-13T23:52:11.403Z,99490.09
2023-05-13T23:54:58.108Z,99490.22
2023-05-13T23:57:44.765Z,99487.72
